sensor_id;sensor_type;location;lat;lon;timestamp;temperature;humidity
70867;HTU21D;58487;53.474;49.470;2022-07-23T00:00:35;15.46;118.99
70867;HTU21D;58487;53.474;49.470;2022-07-23T00:03:02;14.34;118.99
70867;HTU21D;58487;53.474;49.470;2022-07-23T00:05:28;15.69;118.99
70867;HTU21D;58487;53.474;49.470;2022-07-23T00:07:54;15.31;118.99
70867;HTU21D;58487;53.474;49.470;2022-07-23T00:10:20;15.19;118.99
70867;HTU21D;58487;53.474;49.470;2022-07-23T00:12:47;15.18;118.99
70867;HTU21D;58487;53.474;49.470;2022-07-23T00:15:13;15.30;118.99
70867;HTU21D;58487;53.474;49.470;2022-07-23T00:17:39;13.69;118.99
70867;HTU21D;58487;53.474;49.470;2022-07-23T00:20:06;12.67;118.99
70867;HTU21D;58487;53.474;49.470;2022-07-23T00:22:32;14.72;118.99
70867;HTU21D;58487;53.474;49.470;2022-07-23T00:24:59;12.08;118.99
70867;HTU21D;58487;53.474;49.470;2022-07-23T00:27:25;13.24;118.99
70867;HTU21D;58487;53.474;49.470;2022-07-23T00:29:52;14.51;118.99
70867;HTU21D;58487;53.474;49.470;2022-07-23T00:32:18;11.34;118.99
70867;HTU21D;58487;53.474;49.470;2022-07-23T00:34:45;12.05;118.99
70867;HTU21D;58487;53.474;49.470;2022-07-23T00:37:11;12.35;118.99
70867;HTU21D;58487;53.474;49.470;2022-07-23T00:39:37;12.06;118.99
70867;HTU21D;58487;53.474;49.470;2022-07-23T00:42:03;13.20;118.99
70867;HTU21D;58487;53.474;49.470;2022-07-23T00:44:30;13.06;118.99
70867;HTU21D;58487;53.474;49.470;2022-07-23T00:46:58;11.68;118.99
70867;HTU21D;58487;53.474;49.470;2022-07-23T00:49:27;9.18;118.99
70867;HTU21D;58487;53.474;49.470;2022-07-23T00:51:54;11.66;118.99
70867;HTU21D;58487;53.474;49.470;2022-07-23T00:54:23;12.00;118.99
70867;HTU21D;58487;53.474;49.470;2022-07-23T00:56:50;10.77;118.99
70867;HTU21D;58487;53.474;49.470;2022-07-23T00:59:16;11.43;118.99
70867;HTU21D;58487;53.474;49.470;2022-07-23T01:01:42;10.46;118.99
70867;HTU21D;58487;53.474;49.470;2022-07-23T01:04:10;10.21;118.99
70867;HTU21D;58487;53.474;49.470;2022-07-23T01:06:38;10.43;118.99
70867;HTU21D;58487;53.474;49.470;2022-07-23T01:09:05;14.12;118.99
70867;HTU21D;58487;53.474;49.470;2022-07-23T01:11:34;12.66;118.99
70867;HTU21D;58487;53.474;49.470;2022-07-23T01:14:08;15.62;118.99
70867;HTU21D;58487;53.474;49.470;2022-07-23T01:16:34;14.51;118.99
70867;HTU21D;58487;53.474;49.470;2022-07-23T01:19:01;12.47;118.99
70867;HTU21D;58487;53.474;49.470;2022-07-23T01:21:27;14.22;118.99
70867;HTU21D;58487;53.474;49.470;2022-07-23T01:23:53;12.66;118.99
70867;HTU21D;58487;53.474;49.470;2022-07-23T01:26:20;12.67;118.99
70867;HTU21D;58487;53.474;49.470;2022-07-23T01:28:46;13.67;118.99
70867;HTU21D;58487;53.474;49.470;2022-07-23T01:31:12;13.29;118.99
70867;HTU21D;58487;53.474;49.470;2022-07-23T01:33:39;13.35;118.99
70867;HTU21D;58487;53.474;49.470;2022-07-23T01:36:05;14.40;118.99
70867;HTU21D;58487;53.474;49.470;2022-07-23T01:38:31;12.91;118.99
70867;HTU21D;58487;53.474;49.470;2022-07-23T01:40:58;14.20;118.99
70867;HTU21D;58487;53.474;49.470;2022-07-23T01:43:24;15.11;118.99
70867;HTU21D;58487;53.474;49.470;2022-07-23T01:45:50;14.82;118.99
70867;HTU21D;58487;53.474;49.470;2022-07-23T01:48:16;13.78;118.99
70867;HTU21D;58487;53.474;49.470;2022-07-23T01:50:42;15.00;118.99
70867;HTU21D;58487;53.474;49.470;2022-07-23T01:53:09;14.38;118.99
70867;HTU21D;58487;53.474;49.470;2022-07-23T01:55:35;14.22;118.99
70867;HTU21D;58487;53.474;49.470;2022-07-23T01:58:01;14.32;118.99
70867;HTU21D;58487;53.474;49.470;2022-07-23T02:00:28;13.53;118.99
70867;HTU21D;58487;53.474;49.470;2022-07-23T02:02:54;13.39;118.99
70867;HTU21D;58487;53.474;49.470;2022-07-23T02:05:20;13.84;118.99
70867;HTU21D;58487;53.474;49.470;2022-07-23T02:07:47;15.14;118.99
70867;HTU21D;58487;53.474;49.470;2022-07-23T02:10:13;15.90;118.99
70867;HTU21D;58487;53.474;49.470;2022-07-23T02:12:39;14.15;118.99
70867;HTU21D;58487;53.474;49.470;2022-07-23T02:15:06;14.69;118.99
70867;HTU21D;58487;53.474;49.470;2022-07-23T02:17:33;14.59;118.99
70867;HTU21D;58487;53.474;49.470;2022-07-23T02:19:59;13.99;118.99
70867;HTU21D;58487;53.474;49.470;2022-07-23T02:22:25;13.56;118.99
70867;HTU21D;58487;53.474;49.470;2022-07-23T02:24:51;13.88;118.99
70867;HTU21D;58487;53.474;49.470;2022-07-23T02:27:18;14.07;118.99
70867;HTU21D;58487;53.474;49.470;2022-07-23T02:29:44;14.60;118.99
70867;HTU21D;58487;53.474;49.470;2022-07-23T02:32:10;15.46;118.99
70867;HTU21D;58487;53.474;49.470;2022-07-23T02:34:37;15.17;118.99
70867;HTU21D;58487;53.474;49.470;2022-07-23T02:37:03;14.70;118.99
70867;HTU21D;58487;53.474;49.470;2022-07-23T02:39:29;15.21;118.99
70867;HTU21D;58487;53.474;49.470;2022-07-23T02:41:55;15.07;118.99
70867;HTU21D;58487;53.474;49.470;2022-07-23T02:44:22;15.26;118.99
70867;HTU21D;58487;53.474;49.470;2022-07-23T02:46:48;15.34;118.99
70867;HTU21D;58487;53.474;49.470;2022-07-23T02:49:14;15.37;118.99
70867;HTU21D;58487;53.474;49.470;2022-07-23T02:51:40;15.29;118.99
70867;HTU21D;58487;53.474;49.470;2022-07-23T02:54:07;15.02;118.99
70867;HTU21D;58487;53.474;49.470;2022-07-23T02:56:33;15.36;118.99
70867;HTU21D;58487;53.474;49.470;2022-07-23T02:59:08;15.41;118.99
70867;HTU21D;58487;53.474;49.470;2022-07-23T03:01:39;15.31;118.99
70867;HTU21D;58487;53.474;49.470;2022-07-23T03:04:05;14.91;118.99
70867;HTU21D;58487;53.474;49.470;2022-07-23T03:06:31;14.65;118.99
70867;HTU21D;58487;53.474;49.470;2022-07-23T03:08:58;14.75;118.99
70867;HTU21D;58487;53.474;49.470;2022-07-23T03:11:24;14.48;118.99
70867;HTU21D;58487;53.474;49.470;2022-07-23T03:13:50;15.07;118.99
70867;HTU21D;58487;53.474;49.470;2022-07-23T03:16:16;16.17;118.99
70867;HTU21D;58487;53.474;49.470;2022-07-23T03:18:42;15.10;118.99
70867;HTU21D;58487;53.474;49.470;2022-07-23T03:21:09;14.79;118.99
70867;HTU21D;58487;53.474;49.470;2022-07-23T03:23:35;14.88;118.99
70867;HTU21D;58487;53.474;49.470;2022-07-23T03:26:01;15.08;118.99
70867;HTU21D;58487;53.474;49.470;2022-07-23T03:28:27;14.69;118.99
70867;HTU21D;58487;53.474;49.470;2022-07-23T03:30:54;15.11;118.99
70867;HTU21D;58487;53.474;49.470;2022-07-23T03:33:21;15.46;118.99
70867;HTU21D;58487;53.474;49.470;2022-07-23T03:35:47;16.88;118.99
70867;HTU21D;58487;53.474;49.470;2022-07-23T03:38:14;15.71;118.99
70867;HTU21D;58487;53.474;49.470;2022-07-23T03:40:41;16.84;118.99
70867;HTU21D;58487;53.474;49.470;2022-07-23T03:43:07;17.11;118.99
70867;HTU21D;58487;53.474;49.470;2022-07-23T03:45:33;17.44;118.99
70867;HTU21D;58487;53.474;49.470;2022-07-23T03:48:00;16.93;118.99
70867;HTU21D;58487;53.474;49.470;2022-07-23T03:50:26;17.24;118.99
70867;HTU21D;58487;53.474;49.470;2022-07-23T03:52:52;17.54;118.99
70867;HTU21D;58487;53.474;49.470;2022-07-23T03:55:20;16.54;118.99
70867;HTU21D;58487;53.474;49.470;2022-07-23T03:57:46;16.20;118.99
70867;HTU21D;58487;53.474;49.470;2022-07-23T04:00:13;16.07;118.99
70867;HTU21D;58487;53.474;49.470;2022-07-23T04:02:40;15.08;118.99
70867;HTU21D;58487;53.474;49.470;2022-07-23T04:05:06;17.15;118.99
70867;HTU21D;58487;53.474;49.470;2022-07-23T04:07:34;16.98;118.99
70867;HTU21D;58487;53.474;49.470;2022-07-23T04:10:00;17.08;118.99
70867;HTU21D;58487;53.474;49.470;2022-07-23T04:12:26;15.02;118.99
70867;HTU21D;58487;53.474;49.470;2022-07-23T04:14:53;16.69;118.99
70867;HTU21D;58487;53.474;49.470;2022-07-23T04:17:19;12.61;118.99
70867;HTU21D;58487;53.474;49.470;2022-07-23T04:19:45;13.91;118.99
70867;HTU21D;58487;53.474;49.470;2022-07-23T04:22:11;17.44;118.99
70867;HTU21D;58487;53.474;49.470;2022-07-23T04:24:38;16.25;118.99
70867;HTU21D;58487;53.474;49.470;2022-07-23T04:27:05;16.62;118.99
70867;HTU21D;58487;53.474;49.470;2022-07-23T04:29:31;16.13;118.99
70867;HTU21D;58487;53.474;49.470;2022-07-23T04:31:57;16.31;118.99
70867;HTU21D;58487;53.474;49.470;2022-07-23T04:34:24;16.35;118.99
70867;HTU21D;58487;53.474;49.470;2022-07-23T04:36:53;16.35;118.99
70867;HTU21D;58487;53.474;49.470;2022-07-23T04:39:19;16.05;118.99
70867;HTU21D;58487;53.474;49.470;2022-07-23T04:41:46;16.66;118.99
70867;HTU21D;58487;53.474;49.470;2022-07-23T04:44:12;17.01;118.99
70867;HTU21D;58487;53.474;49.470;2022-07-23T04:46:39;17.45;118.99
70867;HTU21D;58487;53.474;49.470;2022-07-23T04:49:05;17.39;118.99
70867;HTU21D;58487;53.474;49.470;2022-07-23T04:51:31;17.50;118.99
70867;HTU21D;58487;53.474;49.470;2022-07-23T04:53:58;17.93;118.99
70867;HTU21D;58487;53.474;49.470;2022-07-23T04:56:24;17.77;118.99
70867;HTU21D;58487;53.474;49.470;2022-07-23T04:58:50;17.63;118.99
70867;HTU21D;58487;53.474;49.470;2022-07-23T05:01:16;14.08;118.99
70867;HTU21D;58487;53.474;49.470;2022-07-23T05:03:43;15.42;118.99
70867;HTU21D;58487;53.474;49.470;2022-07-23T05:06:09;16.29;118.99
70867;HTU21D;58487;53.474;49.470;2022-07-23T05:08:36;16.06;118.99
70867;HTU21D;58487;53.474;49.470;2022-07-23T05:11:02;16.37;118.99
70867;HTU21D;58487;53.474;49.470;2022-07-23T05:13:28;15.63;118.99
70867;HTU21D;58487;53.474;49.470;2022-07-23T05:15:55;16.34;118.99
70867;HTU21D;58487;53.474;49.470;2022-07-23T05:18:21;15.18;118.99
70867;HTU21D;58487;53.474;49.470;2022-07-23T05:20:47;14.24;118.99
70867;HTU21D;58487;53.474;49.470;2022-07-23T05:23:14;13.86;118.99
70867;HTU21D;58487;53.474;49.470;2022-07-23T05:25:40;15.84;118.99
70867;HTU21D;58487;53.474;49.470;2022-07-23T05:28:06;16.35;118.99
70867;HTU21D;58487;53.474;49.470;2022-07-23T05:30:32;13.60;118.99
70867;HTU21D;58487;53.474;49.470;2022-07-23T05:32:59;17.46;118.99
70867;HTU21D;58487;53.474;49.470;2022-07-23T05:35:25;16.77;118.99
70867;HTU21D;58487;53.474;49.470;2022-07-23T05:37:52;18.71;118.99
70867;HTU21D;58487;53.474;49.470;2022-07-23T05:40:18;18.67;118.99
70867;HTU21D;58487;53.474;49.470;2022-07-23T05:42:45;18.00;118.99
70867;HTU21D;58487;53.474;49.470;2022-07-23T05:45:11;17.28;118.99
70867;HTU21D;58487;53.474;49.470;2022-07-23T05:47:46;17.07;118.99
70867;HTU21D;58487;53.474;49.470;2022-07-23T05:50:13;18.03;118.99
70867;HTU21D;58487;53.474;49.470;2022-07-23T05:52:40;15.68;118.99
70867;HTU21D;58487;53.474;49.470;2022-07-23T05:55:07;17.34;118.99
70867;HTU21D;58487;53.474;49.470;2022-07-23T05:57:35;18.04;118.99
70867;HTU21D;58487;53.474;49.470;2022-07-23T06:00:03;16.54;118.99
70867;HTU21D;58487;53.474;49.470;2022-07-23T06:02:30;17.33;118.99
70867;HTU21D;58487;53.474;49.470;2022-07-23T06:04:56;19.59;118.99
70867;HTU21D;58487;53.474;49.470;2022-07-23T06:07:23;20.42;118.99
70867;HTU21D;58487;53.474;49.470;2022-07-23T06:09:49;21.00;118.99
70867;HTU21D;58487;53.474;49.470;2022-07-23T06:12:36;20.44;118.99
70867;HTU21D;58487;53.474;49.470;2022-07-23T06:15:04;20.20;118.99
70867;HTU21D;58487;53.474;49.470;2022-07-23T06:17:30;19.45;118.99
70867;HTU21D;58487;53.474;49.470;2022-07-23T06:19:57;18.98;118.99
70867;HTU21D;58487;53.474;49.470;2022-07-23T06:22:23;19.08;118.99
70867;HTU21D;58487;53.474;49.470;2022-07-23T06:24:50;19.43;118.99
70867;HTU21D;58487;53.474;49.470;2022-07-23T06:27:18;18.72;118.99
70867;HTU21D;58487;53.474;49.470;2022-07-23T06:29:45;19.99;118.99
70867;HTU21D;58487;53.474;49.470;2022-07-23T06:32:11;19.28;118.99
70867;HTU21D;58487;53.474;49.470;2022-07-23T06:34:38;19.45;118.99
70867;HTU21D;58487;53.474;49.470;2022-07-23T06:37:04;19.13;118.99
70867;HTU21D;58487;53.474;49.470;2022-07-23T06:39:31;18.88;118.99
70867;HTU21D;58487;53.474;49.470;2022-07-23T06:41:57;19.31;118.99
70867;HTU21D;58487;53.474;49.470;2022-07-23T06:44:23;19.36;118.99
70867;HTU21D;58487;53.474;49.470;2022-07-23T06:46:49;19.06;118.99
70867;HTU21D;58487;53.474;49.470;2022-07-23T06:49:16;18.97;118.99
70867;HTU21D;58487;53.474;49.470;2022-07-23T06:51:42;19.89;118.99
70867;HTU21D;58487;53.474;49.470;2022-07-23T06:54:08;19.47;118.99
70867;HTU21D;58487;53.474;49.470;2022-07-23T07:00:29;20.14;118.99
70867;HTU21D;58487;53.474;49.470;2022-07-23T07:02:57;19.72;118.99
70867;HTU21D;58487;53.474;49.470;2022-07-23T07:05:23;19.69;118.99
70867;HTU21D;58487;53.474;49.470;2022-07-23T07:07:51;19.84;118.99
70867;HTU21D;58487;53.474;49.470;2022-07-23T07:10:17;19.50;118.99
70867;HTU21D;58487;53.474;49.470;2022-07-23T07:12:44;18.29;118.99
70867;HTU21D;58487;53.474;49.470;2022-07-23T07:15:10;18.92;118.99
70867;HTU21D;58487;53.474;49.470;2022-07-23T07:17:37;18.00;118.99
70867;HTU21D;58487;53.474;49.470;2022-07-23T07:20:04;17.43;118.99
70867;HTU21D;58487;53.474;49.470;2022-07-23T07:22:30;19.06;118.99
70867;HTU21D;58487;53.474;49.470;2022-07-23T07:24:57;19.46;118.99
70867;HTU21D;58487;53.474;49.470;2022-07-23T07:27:23;17.67;118.99
70867;HTU21D;58487;53.474;49.470;2022-07-23T07:29:49;17.78;118.99
70867;HTU21D;58487;53.474;49.470;2022-07-23T07:32:16;16.91;118.99
70867;HTU21D;58487;53.474;49.470;2022-07-23T07:34:42;17.78;118.99
70867;HTU21D;58487;53.474;49.470;2022-07-23T07:37:08;18.03;118.99
70867;HTU21D;58487;53.474;49.470;2022-07-23T07:39:35;17.58;118.99
70867;HTU21D;58487;53.474;49.470;2022-07-23T07:42:01;18.91;118.99
70867;HTU21D;58487;53.474;49.470;2022-07-23T07:44:27;18.84;118.99
70867;HTU21D;58487;53.474;49.470;2022-07-23T07:46:53;19.45;118.99
70867;HTU21D;58487;53.474;49.470;2022-07-23T07:49:20;19.42;118.99
70867;HTU21D;58487;53.474;49.470;2022-07-23T07:51:46;19.99;118.99
70867;HTU21D;58487;53.474;49.470;2022-07-23T07:54:12;17.51;118.99
70867;HTU21D;58487;53.474;49.470;2022-07-23T07:56:41;19.74;118.99
70867;HTU21D;58487;53.474;49.470;2022-07-23T07:59:07;16.77;118.99
70867;HTU21D;58487;53.474;49.470;2022-07-23T08:01:36;14.50;118.99
70867;HTU21D;58487;53.474;49.470;2022-07-23T08:04:03;14.30;118.99
70867;HTU21D;58487;53.474;49.470;2022-07-23T08:06:32;15.13;118.99
70867;HTU21D;58487;53.474;49.470;2022-07-23T08:08:58;20.72;118.99
70867;HTU21D;58487;53.474;49.470;2022-07-23T08:11:24;20.57;118.99
70867;HTU21D;58487;53.474;49.470;2022-07-23T08:13:51;20.60;118.99
70867;HTU21D;58487;53.474;49.470;2022-07-23T08:16:17;20.80;118.99
70867;HTU21D;58487;53.474;49.470;2022-07-23T08:18:46;20.91;118.99
70867;HTU21D;58487;53.474;49.470;2022-07-23T08:21:12;20.62;118.99
70867;HTU21D;58487;53.474;49.470;2022-07-23T08:23:38;20.90;118.99
70867;HTU21D;58487;53.474;49.470;2022-07-23T08:26:05;20.71;118.99
70867;HTU21D;58487;53.474;49.470;2022-07-23T08:28:31;21.03;118.99
70867;HTU21D;58487;53.474;49.470;2022-07-23T08:31:01;20.18;118.99
70867;HTU21D;58487;53.474;49.470;2022-07-23T08:33:27;20.76;118.99
70867;HTU21D;58487;53.474;49.470;2022-07-23T08:35:54;20.47;118.99
70867;HTU21D;58487;53.474;49.470;2022-07-23T08:38:21;20.79;118.99
70867;HTU21D;58487;53.474;49.470;2022-07-23T08:40:49;20.17;118.99
70867;HTU21D;58487;53.474;49.470;2022-07-23T08:43:25;20.65;118.99
70867;HTU21D;58487;53.474;49.470;2022-07-23T08:45:54;20.91;118.99
70867;HTU21D;58487;53.474;49.470;2022-07-23T08:48:26;19.77;118.99
70867;HTU21D;58487;53.474;49.470;2022-07-23T08:50:55;16.39;118.99
70867;HTU21D;58487;53.474;49.470;2022-07-23T08:53:23;20.07;118.99
70867;HTU21D;58487;53.474;49.470;2022-07-23T08:55:55;20.16;118.99
70867;HTU21D;58487;53.474;49.470;2022-07-23T08:58:22;20.62;118.99
70867;HTU21D;58487;53.474;49.470;2022-07-23T09:00:48;21.14;118.99
70867;HTU21D;58487;53.474;49.470;2022-07-23T09:03:18;20.90;118.99
70867;HTU21D;58487;53.474;49.470;2022-07-23T09:05:44;19.96;118.99
70867;HTU21D;58487;53.474;49.470;2022-07-23T09:08:18;20.18;118.99
70867;HTU21D;58487;53.474;49.470;2022-07-23T09:11:02;19.94;118.99
70867;HTU21D;58487;53.474;49.470;2022-07-23T09:18:43;20.46;118.99
70867;HTU21D;58487;53.474;49.470;2022-07-23T09:21:17;20.29;118.99
70867;HTU21D;58487;53.474;49.470;2022-07-23T09:24:05;20.25;118.99
70867;HTU21D;58487;53.474;49.470;2022-07-23T09:26:42;20.75;118.99
70867;HTU21D;58487;53.474;49.470;2022-07-23T09:29:11;21.17;118.99
70867;HTU21D;58487;53.474;49.470;2022-07-23T09:31:59;20.61;118.99
70867;HTU21D;58487;53.474;49.470;2022-07-23T09:34:34;20.86;118.99
70867;HTU21D;58487;53.474;49.470;2022-07-23T09:37:12;21.52;118.99
70867;HTU21D;58487;53.474;49.470;2022-07-23T09:39:39;21.75;118.99
70867;HTU21D;58487;53.474;49.470;2022-07-23T09:42:18;22.37;118.99
70867;HTU21D;58487;53.474;49.470;2022-07-23T09:44:46;21.80;118.99
70867;HTU21D;58487;53.474;49.470;2022-07-23T09:47:13;22.29;118.99
70867;HTU21D;58487;53.474;49.470;2022-07-23T09:49:40;22.12;118.99
70867;HTU21D;58487;53.474;49.470;2022-07-23T09:52:06;21.66;118.99
70867;HTU21D;58487;53.474;49.470;2022-07-23T09:54:39;21.55;118.99
70867;HTU21D;58487;53.474;49.470;2022-07-23T09:57:13;21.79;118.99
70867;HTU21D;58487;53.474;49.470;2022-07-23T09:59:42;22.53;118.99
70867;HTU21D;58487;53.474;49.470;2022-07-23T10:02:10;22.62;118.99
70867;HTU21D;58487;53.474;49.470;2022-07-23T10:04:38;20.79;118.99
70867;HTU21D;58487;53.474;49.470;2022-07-23T10:07:07;21.42;118.99
70867;HTU21D;58487;53.474;49.470;2022-07-23T10:09:40;21.37;118.99
70867;HTU21D;58487;53.474;49.470;2022-07-23T10:12:14;21.87;118.99
70867;HTU21D;58487;53.474;49.470;2022-07-23T10:14:49;21.66;118.99
70867;HTU21D;58487;53.474;49.470;2022-07-23T10:17:17;21.32;118.99
70867;HTU21D;58487;53.474;49.470;2022-07-23T10:19:44;21.81;118.99
70867;HTU21D;58487;53.474;49.470;2022-07-23T10:22:24;20.07;118.99
70867;HTU21D;58487;53.474;49.470;2022-07-23T10:36:22;18.63;118.99
70867;HTU21D;58487;53.474;49.470;2022-07-23T10:38:57;16.66;118.99
70867;HTU21D;58487;53.474;49.470;2022-07-23T10:41:38;17.79;118.99
70867;HTU21D;58487;53.474;49.470;2022-07-23T10:44:12;18.48;118.99
70867;HTU21D;58487;53.474;49.470;2022-07-23T10:47:02;18.40;118.99
70867;HTU21D;58487;53.474;49.470;2022-07-23T10:49:47;18.70;118.99
70867;HTU21D;58487;53.474;49.470;2022-07-23T10:57:29;17.55;118.99
70867;HTU21D;58487;53.474;49.470;2022-07-23T11:02:37;17.23;118.99
70867;HTU21D;58487;53.474;49.470;2022-07-23T11:05:07;16.02;118.99
70867;HTU21D;58487;53.474;49.470;2022-07-23T11:07:35;16.73;118.99
70867;HTU21D;58487;53.474;49.470;2022-07-23T11:10:02;17.64;118.99
70867;HTU21D;58487;53.474;49.470;2022-07-23T11:12:35;18.61;118.99
70867;HTU21D;58487;53.474;49.470;2022-07-23T11:15:11;19.81;118.99
70867;HTU21D;58487;53.474;49.470;2022-07-23T11:20:20;17.45;118.99
70867;HTU21D;58487;53.474;49.470;2022-07-23T11:22:52;17.46;118.99
70867;HTU21D;58487;53.474;49.470;2022-07-23T11:27:54;16.92;118.99
70867;HTU21D;58487;53.474;49.470;2022-07-23T11:35:38;18.30;118.99
70867;HTU21D;58487;53.474;49.470;2022-07-23T11:38:19;18.68;118.99
70867;HTU21D;58487;53.474;49.470;2022-07-23T11:40:51;18.93;118.99
70867;HTU21D;58487;53.474;49.470;2022-07-23T11:43:20;20.11;118.99
70867;HTU21D;58487;53.474;49.470;2022-07-23T11:45:53;20.04;118.99
70867;HTU21D;58487;53.474;49.470;2022-07-23T11:48:21;19.95;118.99
70867;HTU21D;58487;53.474;49.470;2022-07-23T11:50:51;19.73;118.99
70867;HTU21D;58487;53.474;49.470;2022-07-23T11:53:30;18.20;118.99
70867;HTU21D;58487;53.474;49.470;2022-07-23T11:56:07;18.66;118.99
70867;HTU21D;58487;53.474;49.470;2022-07-23T11:58:34;20.84;118.99
70867;HTU21D;58487;53.474;49.470;2022-07-23T12:01:01;15.36;118.99
70867;HTU21D;58487;53.474;49.470;2022-07-23T12:03:27;15.96;118.99
70867;HTU21D;58487;53.474;49.470;2022-07-23T12:05:58;16.87;118.99
70867;HTU21D;58487;53.474;49.470;2022-07-23T12:08:25;17.66;118.99
70867;HTU21D;58487;53.474;49.470;2022-07-23T12:10:57;16.90;118.99
70867;HTU21D;58487;53.474;49.470;2022-07-23T12:13:26;17.37;118.99
70867;HTU21D;58487;53.474;49.470;2022-07-23T12:15:54;18.10;118.99
70867;HTU21D;58487;53.474;49.470;2022-07-23T12:18:26;17.50;118.99
70867;HTU21D;58487;53.474;49.470;2022-07-23T12:20:57;16.00;118.99
70867;HTU21D;58487;53.474;49.470;2022-07-23T12:23:25;17.84;118.99
70867;HTU21D;58487;53.474;49.470;2022-07-23T12:25:53;17.77;118.99
70867;HTU21D;58487;53.474;49.470;2022-07-23T12:28:30;19.22;118.99
70867;HTU21D;58487;53.474;49.470;2022-07-23T12:30:58;18.62;118.99
70867;HTU21D;58487;53.474;49.470;2022-07-23T12:33:33;18.63;118.99
70867;HTU21D;58487;53.474;49.470;2022-07-23T12:36:03;23.00;118.99
70867;HTU21D;58487;53.474;49.470;2022-07-23T12:38:50;24.32;118.99
70867;HTU21D;58487;53.474;49.470;2022-07-23T12:41:17;20.43;118.99
70867;HTU21D;58487;53.474;49.470;2022-07-23T12:43:45;20.03;118.99
70867;HTU21D;58487;53.474;49.470;2022-07-23T12:46:14;25.20;118.99
70867;HTU21D;58487;53.474;49.470;2022-07-23T12:51:23;20.86;118.99
70867;HTU21D;58487;53.474;49.470;2022-07-23T12:54:09;20.77;118.99
70867;HTU21D;58487;53.474;49.470;2022-07-23T12:56:40;21.67;118.99
70867;HTU21D;58487;53.474;49.470;2022-07-23T12:59:09;21.47;118.99
70867;HTU21D;58487;53.474;49.470;2022-07-23T13:01:54;23.05;118.99
70867;HTU21D;58487;53.474;49.470;2022-07-23T13:04:22;19.94;118.99
70867;HTU21D;58487;53.474;49.470;2022-07-23T13:06:54;22.03;118.99
70867;HTU21D;58487;53.474;49.470;2022-07-23T13:09:23;21.69;118.99
70867;HTU21D;58487;53.474;49.470;2022-07-23T13:11:50;28.72;118.99
70867;HTU21D;58487;53.474;49.470;2022-07-23T13:14:18;28.39;118.99
70867;HTU21D;58487;53.474;49.470;2022-07-23T13:16:46;28.09;118.99
70867;HTU21D;58487;53.474;49.470;2022-07-23T13:19:14;28.11;118.99
70867;HTU21D;58487;53.474;49.470;2022-07-23T13:21:41;28.70;118.99
70867;HTU21D;58487;53.474;49.470;2022-07-23T13:24:11;26.48;118.99
70867;HTU21D;58487;53.474;49.470;2022-07-23T13:26:39;27.83;118.99
70867;HTU21D;58487;53.474;49.470;2022-07-23T13:29:06;27.23;118.99
70867;HTU21D;58487;53.474;49.470;2022-07-23T13:31:33;28.21;118.99
70867;HTU21D;58487;53.474;49.470;2022-07-23T13:33:59;27.86;118.99
70867;HTU21D;58487;53.474;49.470;2022-07-23T13:36:25;29.16;118.99
70867;HTU21D;58487;53.474;49.470;2022-07-23T13:38:52;27.52;118.99
70867;HTU21D;58487;53.474;49.470;2022-07-23T13:41:18;29.29;118.99
70867;HTU21D;58487;53.474;49.470;2022-07-23T13:43:44;28.91;118.99
70867;HTU21D;58487;53.474;49.470;2022-07-23T13:46:11;28.64;118.99
70867;HTU21D;58487;53.474;49.470;2022-07-23T13:48:37;28.19;118.99
70867;HTU21D;58487;53.474;49.470;2022-07-23T13:51:03;28.24;118.99
70867;HTU21D;58487;53.474;49.470;2022-07-23T13:53:30;27.89;118.99
70867;HTU21D;58487;53.474;49.470;2022-07-23T13:55:56;28.52;118.99
70867;HTU21D;58487;53.474;49.470;2022-07-23T13:58:23;29.52;118.99
70867;HTU21D;58487;53.474;49.470;2022-07-23T14:00:51;28.24;118.99
70867;HTU21D;58487;53.474;49.470;2022-07-23T14:03:18;27.36;118.99
70867;HTU21D;58487;53.474;49.470;2022-07-23T14:05:45;26.75;118.99
70867;HTU21D;58487;53.474;49.470;2022-07-23T15:02:58;25.96;118.99
70867;HTU21D;58487;53.474;49.470;2022-07-23T15:05:25;25.61;118.99
70867;HTU21D;58487;53.474;49.470;2022-07-23T15:07:51;24.66;118.99
70867;HTU21D;58487;53.474;49.470;2022-07-23T15:10:18;24.10;118.99
70867;HTU21D;58487;53.474;49.470;2022-07-23T15:12:44;24.56;118.99
70867;HTU21D;58487;53.474;49.470;2022-07-23T15:15:10;23.12;118.99
70867;HTU21D;58487;53.474;49.470;2022-07-23T15:17:36;23.80;118.99
70867;HTU21D;58487;53.474;49.470;2022-07-23T15:20:03;22.62;118.99
70867;HTU21D;58487;53.474;49.470;2022-07-23T15:22:30;23.49;118.99
70867;HTU21D;58487;53.474;49.470;2022-07-23T15:24:56;23.45;118.99
70867;HTU21D;58487;53.474;49.470;2022-07-23T15:27:23;22.23;118.99
70867;HTU21D;58487;53.474;49.470;2022-07-23T15:29:49;21.84;118.99
70867;HTU21D;58487;53.474;49.470;2022-07-23T15:32:15;22.08;118.99
70867;HTU21D;58487;53.474;49.470;2022-07-23T15:34:42;22.17;118.99
70867;HTU21D;58487;53.474;49.470;2022-07-23T15:37:08;21.01;118.99
70867;HTU21D;58487;53.474;49.470;2022-07-23T15:39:34;21.63;118.99
70867;HTU21D;58487;53.474;49.470;2022-07-23T15:42:01;21.23;118.99
70867;HTU21D;58487;53.474;49.470;2022-07-23T15:44:27;21.84;118.99
70867;HTU21D;58487;53.474;49.470;2022-07-23T15:46:54;20.66;118.99
70867;HTU21D;58487;53.474;49.470;2022-07-23T15:49:21;22.01;118.99
70867;HTU21D;58487;53.474;49.470;2022-07-23T15:51:47;22.38;118.99
70867;HTU21D;58487;53.474;49.470;2022-07-23T15:54:14;21.51;118.99
70867;HTU21D;58487;53.474;49.470;2022-07-23T15:56:40;21.72;118.99
70867;HTU21D;58487;53.474;49.470;2022-07-23T15:59:07;21.89;118.99
70867;HTU21D;58487;53.474;49.470;2022-07-23T16:01:34;20.57;118.99
70867;HTU21D;58487;53.474;49.470;2022-07-23T16:04:00;20.90;118.99
70867;HTU21D;58487;53.474;49.470;2022-07-23T16:06:27;19.80;118.99
70867;HTU21D;58487;53.474;49.470;2022-07-23T16:08:53;21.65;118.99
70867;HTU21D;58487;53.474;49.470;2022-07-23T16:11:19;20.58;118.99
70867;HTU21D;58487;53.474;49.470;2022-07-23T16:13:45;20.69;118.99
70867;HTU21D;58487;53.474;49.470;2022-07-23T16:16:12;21.53;118.99
70867;HTU21D;58487;53.474;49.470;2022-07-23T16:18:38;21.05;118.99
70867;HTU21D;58487;53.474;49.470;2022-07-23T16:21:05;21.05;118.99
70867;HTU21D;58487;53.474;49.470;2022-07-23T16:23:31;20.87;118.99
70867;HTU21D;58487;53.474;49.470;2022-07-23T16:25:59;20.48;118.99
70867;HTU21D;58487;53.474;49.470;2022-07-23T16:28:25;20.71;118.99